sensor_id;sensor_type;location;lat;lon;timestamp;pressure;altitude;pressure_sealevel;temperature;humidity
58471;BME280;44258;51.288;12.068;2023-11-19T00:00:10;100317.25;;;7.86;75.99
58471;BME280;44258;51.288;12.068;2023-11-19T00:02:40;100311.16;;;8.03;75.54
58471;BME280;44258;51.288;12.068;2023-11-19T00:05:13;100322.78;;;8.02;75.69
58471;BME280;44258;51.288;12.068;2023-11-19T00:07:40;100311.72;;;7.90;75.46
58471;BME280;44258;51.288;12.068;2023-11-19T00:10:08;100306.53;;;7.86;75.48
58471;BME280;44258;51.288;12.068;2023-11-19T00:12:37;100295.09;;;8.03;74.54
58471;BME280;44258;51.288;12.068;2023-11-19T00:15:06;100284.94;;;7.90;75.58
58471;BME280;44258;51.288;12.068;2023-11-19T00:17:36;100285.34;;;7.81;76.06
58471;BME280;44258;51.288;12.068;2023-11-19T00:20:05;100283.34;;;7.86;75.92
58471;BME280;44258;51.288;12.068;2023-11-19T00:22:33;100275.88;;;7.93;75.91
58471;BME280;44258;51.288;12.068;2023-11-19T00:24:59;100271.63;;;7.89;75.66
58471;BME280;44258;51.288;12.068;2023-11-19T00:27:26;100262.00;;;8.04;74.92
58471;BME280;44258;51.288;12.068;2023-11-19T00:29:53;100256.91;;;7.98;75.55
58471;BME280;44258;51.288;12.068;2023-11-19T00:32:21;100245.47;;;7.94;75.93
58471;BME280;44258;51.288;12.068;2023-11-19T00:34:48;100243.91;;;8.09;74.70
58471;BME280;44258;51.288;12.068;2023-11-19T00:37:15;100239.41;;;8.09;75.39
58471;BME280;44258;51.288;12.068;2023-11-19T00:39:42;100233.78;;;8.16;74.99
58471;BME280;44258;51.288;12.068;2023-11-19T00:42:11;100211.13;;;8.23;74.35
58471;BME280;44258;51.288;12.068;2023-11-19T00:44:39;100211.03;;;8.24;74.15
58471;BME280;44258;51.288;12.068;2023-11-19T00:47:07;100201.56;;;8.17;74.35
58471;BME280;44258;51.288;12.068;2023-11-19T00:49:35;100189.53;;;8.26;74.17
58471;BME280;44258;51.288;12.068;2023-11-19T00:52:02;100179.91;;;8.22;74.18
58471;BME280;44258;51.288;12.068;2023-11-19T00:54:29;100180.56;;;8.27;73.87
58471;BME280;44258;51.288;12.068;2023-11-19T00:56:56;100175.56;;;8.19;73.96
58471;BME280;44258;51.288;12.068;2023-11-19T00:59:24;100176.91;;;8.10;74.47
58471;BME280;44258;51.288;12.068;2023-11-19T01:01:51;100162.97;;;8.21;74.60
58471;BME280;44258;51.288;12.068;2023-11-19T01:04:18;100156.81;;;8.19;74.57
58471;BME280;44258;51.288;12.068;2023-11-19T01:06:48;100160.72;;;8.12;74.73
58471;BME280;44258;51.288;12.068;2023-11-19T01:09:15;100153.19;;;8.20;74.50
58471;BME280;44258;51.288;12.068;2023-11-19T01:11:42;100137.91;;;8.22;74.26
58471;BME280;44258;51.288;12.068;2023-11-19T01:14:08;100130.09;;;8.00;75.48
58471;BME280;44258;51.288;12.068;2023-11-19T01:16:35;100122.25;;;8.14;74.97
58471;BME280;44258;51.288;12.068;2023-11-19T01:19:02;100117.09;;;8.10;75.24
58471;BME280;44258;51.288;12.068;2023-11-19T01:21:30;100099.13;;;8.12;75.09
58471;BME280;44258;51.288;12.068;2023-11-19T01:24:01;100098.94;;;8.17;75.12
58471;BME280;44258;51.288;12.068;2023-11-19T01:26:29;100080.41;;;8.29;74.82
58471;BME280;44258;51.288;12.068;2023-11-19T01:28:56;100077.56;;;8.32;74.55
58471;BME280;44258;51.288;12.068;2023-11-19T01:31:23;100064.34;;;8.29;74.70
58471;BME280;44258;51.288;12.068;2023-11-19T01:33:49;100056.13;;;8.32;74.65
58471;BME280;44258;51.288;12.068;2023-11-19T01:36:16;100062.38;;;8.33;74.64
58471;BME280;44258;51.288;12.068;2023-11-19T01:38:43;100054.25;;;8.34;74.56
58471;BME280;44258;51.288;12.068;2023-11-19T01:41:11;100051.34;;;8.39;74.54
58471;BME280;44258;51.288;12.068;2023-11-19T01:43:39;100060.50;;;8.35;75.26
58471;BME280;44258;51.288;12.068;2023-11-19T01:46:07;100061.09;;;8.40;75.15
58471;BME280;44258;51.288;12.068;2023-11-19T01:48:40;100059.06;;;8.45;75.21
58471;BME280;44258;51.288;12.068;2023-11-19T01:51:08;100061.56;;;8.48;75.14
58471;BME280;44258;51.288;12.068;2023-11-19T01:53:36;100063.94;;;8.54;75.00
58471;BME280;44258;51.288;12.068;2023-11-19T01:56:13;100072.69;;;8.58;75.05
58471;BME280;44258;51.288;12.068;2023-11-19T01:58:41;100052.50;;;8.68;74.95
58471;BME280;44258;51.288;12.068;2023-11-19T02:01:10;100037.50;;;8.82;74.37
58471;BME280;44258;51.288;12.068;2023-11-19T02:03:38;100028.69;;;8.80;74.78
58471;BME280;44258;51.288;12.068;2023-11-19T02:06:05;100017.78;;;8.83;74.34
58471;BME280;44258;51.288;12.068;2023-11-19T02:08:37;100010.78;;;8.80;74.55
58471;BME280;44258;51.288;12.068;2023-11-19T02:11:05;99991.47;;;8.89;74.25
58471;BME280;44258;51.288;12.068;2023-11-19T02:13:33;100008.00;;;8.82;75.00
58471;BME280;44258;51.288;12.068;2023-11-19T02:16:02;99989.69;;;8.90;74.98
58471;BME280;44258;51.288;12.068;2023-11-19T02:18:29;99985.44;;;9.02;74.51
58471;BME280;44258;51.288;12.068;2023-11-19T02:20:56;99981.91;;;9.17;73.46
58471;BME280;44258;51.288;12.068;2023-11-19T02:23:24;99980.03;;;9.19;73.75
58471;BME280;44258;51.288;12.068;2023-11-19T02:26:02;99975.50;;;9.20;74.10
58471;BME280;44258;51.288;12.068;2023-11-19T02:28:32;99967.91;;;9.28;73.50
58471;BME280;44258;51.288;12.068;2023-11-19T02:30:59;99961.06;;;9.38;72.91
58471;BME280;44258;51.288;12.068;2023-11-19T02:33:26;99944.75;;;9.43;72.80
58471;BME280;44258;51.288;12.068;2023-11-19T02:35:53;99932.59;;;9.35;72.99
58471;BME280;44258;51.288;12.068;2023-11-19T02:38:20;99917.88;;;9.27;73.52
58471;BME280;44258;51.288;12.068;2023-11-19T02:40:51;99908.44;;;9.20;73.81
58471;BME280;44258;51.288;12.068;2023-11-19T02:43:18;99902.56;;;9.13;74.31
58471;BME280;44258;51.288;12.068;2023-11-19T02:45:48;99903.00;;;9.21;74.12
58471;BME280;44258;51.288;12.068;2023-11-19T02:48:16;99908.38;;;9.21;74.54
58471;BME280;44258;51.288;12.068;2023-11-19T02:50:44;99903.06;;;9.35;73.91
58471;BME280;44258;51.288;12.068;2023-11-19T02:53:12;99906.19;;;9.44;73.83
58471;BME280;44258;51.288;12.068;2023-11-19T02:55:39;99894.25;;;9.49;74.03
58471;BME280;44258;51.288;12.068;2023-11-19T02:58:06;99896.59;;;9.40;74.99
58471;BME280;44258;51.288;12.068;2023-11-19T03:00:46;99876.97;;;9.39;75.00
58471;BME280;44258;51.288;12.068;2023-11-19T03:03:19;99865.09;;;9.43;75.23
58471;BME280;44258;51.288;12.068;2023-11-19T03:05:46;99875.47;;;9.49;75.01
58471;BME280;44258;51.288;12.068;2023-11-19T03:08:14;99872.34;;;9.57;74.94
58471;BME280;44258;51.288;12.068;2023-11-19T03:10:42;99879.19;;;9.47;75.64
58471;BME280;44258;51.288;12.068;2023-11-19T03:13:11;99874.81;;;9.60;75.25
58471;BME280;44258;51.288;12.068;2023-11-19T03:15:39;99868.78;;;9.71;74.87
58471;BME280;44258;51.288;12.068;2023-11-19T03:18:07;99869.41;;;9.76;75.08
58471;BME280;44258;51.288;12.068;2023-11-19T03:20:34;99864.34;;;9.86;74.75
58471;BME280;44258;51.288;12.068;2023-11-19T03:23:01;99870.97;;;9.94;74.78
58471;BME280;44258;51.288;12.068;2023-11-19T03:25:28;99870.19;;;9.92;74.88
58471;BME280;44258;51.288;12.068;2023-11-19T03:27:59;99866.38;;;9.97;74.77
58471;BME280;44258;51.288;12.068;2023-11-19T03:30:26;99868.28;;;9.94;75.05
58471;BME280;44258;51.288;12.068;2023-11-19T03:32:54;99864.94;;;10.05;74.28
58471;BME280;44258;51.288;12.068;2023-11-19T03:35:22;99858.53;;;10.08;74.36
58471;BME280;44258;51.288;12.068;2023-11-19T03:37:50;99858.38;;;9.81;75.75
58471;BME280;44258;51.288;12.068;2023-11-19T03:40:17;99873.94;;;9.90;75.72
58471;BME280;44258;51.288;12.068;2023-11-19T03:42:45;99860.69;;;9.87;75.30
58471;BME280;44258;51.288;12.068;2023-11-19T03:45:11;99855.50;;;9.84;75.54
58471;BME280;44258;51.288;12.068;2023-11-19T03:47:38;99851.19;;;9.95;75.05
58471;BME280;44258;51.288;12.068;2023-11-19T03:50:06;99848.50;;;9.95;75.13
58471;BME280;44258;51.288;12.068;2023-11-19T03:52:35;99839.03;;;9.90;75.44
58471;BME280;44258;51.288;12.068;2023-11-19T03:55:03;99827.22;;;9.92;75.05
58471;BME280;44258;51.288;12.068;2023-11-19T03:57:31;99823.38;;;9.82;76.17
58471;BME280;44258;51.288;12.068;2023-11-19T03:59:57;99830.19;;;9.88;76.04
58471;BME280;44258;51.288;12.068;2023-11-19T04:02:25;99820.97;;;9.78;76.73
58471;BME280;44258;51.288;12.068;2023-11-19T04:04:54;99817.03;;;9.83;76.50
58471;BME280;44258;51.288;12.068;2023-11-19T04:07:21;99823.31;;;9.98;76.26
58471;BME280;44258;51.288;12.068;2023-11-19T04:09:49;99826.94;;;10.11;75.14
58471;BME280;44258;51.288;12.068;2023-11-19T04:12:16;99814.78;;;10.20;74.77
58471;BME280;44258;51.288;12.068;2023-11-19T04:14:43;99797.97;;;10.17;74.92
58471;BME280;44258;51.288;12.068;2023-11-19T04:17:10;99793.84;;;10.11;75.33
58471;BME280;44258;51.288;12.068;2023-11-19T04:19:36;99787.16;;;10.04;75.68
58471;BME280;44258;51.288;12.068;2023-11-19T04:22:07;99789.25;;;9.99;76.42
58471;BME280;44258;51.288;12.068;2023-11-19T04:24:34;99783.00;;;9.98;76.48
58471;BME280;44258;51.288;12.068;2023-11-19T04:27:03;99781.56;;;10.07;75.71
58471;BME280;44258;51.288;12.068;2023-11-19T04:29:30;99776.03;;;10.10;75.50
58471;BME280;44258;51.288;12.068;2023-11-19T04:31:57;99767.38;;;10.05;76.00
58471;BME280;44258;51.288;12.068;2023-11-19T04:34:24;99756.63;;;10.05;76.05
58471;BME280;44258;51.288;12.068;2023-11-19T04:36:51;99758.53;;;10.03;76.60
58471;BME280;44258;51.288;12.068;2023-11-19T04:39:18;99768.34;;;10.04;76.49
58471;BME280;44258;51.288;12.068;2023-11-19T04:41:48;99770.13;;;10.18;75.92
58471;BME280;44258;51.288;12.068;2023-11-19T04:44:16;99756.22;;;10.25;75.34
58471;BME280;44258;51.288;12.068;2023-11-19T04:46:44;99746.91;;;10.31;75.18
58471;BME280;44258;51.288;12.068;2023-11-19T04:49:11;99741.53;;;10.31;75.45
58471;BME280;44258;51.288;12.068;2023-11-19T04:51:39;99730.31;;;10.24;75.57
58471;BME280;44258;51.288;12.068;2023-11-19T04:54:07;99725.13;;;10.21;75.64
58471;BME280;44258;51.288;12.068;2023-11-19T04:56:34;99708.16;;;10.21;75.45
58471;BME280;44258;51.288;12.068;2023-11-19T04:59:01;99708.47;;;10.16;75.79
58471;BME280;44258;51.288;12.068;2023-11-19T05:01:29;99707.13;;;10.09;76.10
58471;BME280;44258;51.288;12.068;2023-11-19T05:03:56;99705.41;;;10.08;76.65
58471;BME280;44258;51.288;12.068;2023-11-19T05:06:26;99711.84;;;9.91;77.72
58471;BME280;44258;51.288;12.068;2023-11-19T05:08:53;99705.03;;;10.00;77.51
58471;BME280;44258;51.288;12.068;2023-11-19T05:11:20;99692.06;;;10.06;76.92
58471;BME280;44258;51.288;12.068;2023-11-19T05:13:47;99698.69;;;10.01;77.48
58471;BME280;44258;51.288;12.068;2023-11-19T05:16:13;99693.00;;;10.05;77.16
58471;BME280;44258;51.288;12.068;2023-11-19T05:18:42;99706.28;;;9.94;78.20
58471;BME280;44258;51.288;12.068;2023-11-19T05:21:08;99727.56;;;9.83;79.16
58471;BME280;44258;51.288;12.068;2023-11-19T05:23:35;99729.31;;;9.98;78.95
58471;BME280;44258;51.288;12.068;2023-11-19T05:26:02;99732.28;;;10.08;78.53
58471;BME280;44258;51.288;12.068;2023-11-19T05:28:29;99713.31;;;10.24;77.63
58471;BME280;44258;51.288;12.068;2023-11-19T05:30:57;99736.34;;;10.28;77.67
58471;BME280;44258;51.288;12.068;2023-11-19T05:33:24;99731.81;;;10.43;77.29
58471;BME280;44258;51.288;12.068;2023-11-19T05:35:52;99728.72;;;10.49;77.19
58471;BME280;44258;51.288;12.068;2023-11-19T05:38:18;99720.53;;;10.65;76.23
58471;BME280;44258;51.288;12.068;2023-11-19T05:40:46;99719.03;;;10.73;75.66
58471;BME280;44258;51.288;12.068;2023-11-19T05:43:14;99705.47;;;10.48;76.96
58471;BME280;44258;51.288;12.068;2023-11-19T05:45:42;99690.38;;;10.60;76.47
58471;BME280;44258;51.288;12.068;2023-11-19T05:48:08;99680.94;;;10.67;76.09
58471;BME280;44258;51.288;12.068;2023-11-19T05:50:36;99670.06;;;10.68;76.04
58471;BME280;44258;51.288;12.068;2023-11-19T05:53:04;99655.56;;;10.71;75.91
58471;BME280;44258;51.288;12.068;2023-11-19T05:55:34;99660.81;;;10.72;75.89
58471;BME280;44258;51.288;12.068;2023-11-19T05:58:01;99662.25;;;10.78;75.85
58471;BME280;44258;51.288;12.068;2023-11-19T06:00:32;99668.13;;;10.70;76.20
58471;BME280;44258;51.288;12.068;2023-11-19T06:03:00;99678.38;;;10.78;75.79
58471;BME280;44258;51.288;12.068;2023-11-19T06:05:30;99678.94;;;10.56;76.81
58471;BME280;44258;51.288;12.068;2023-11-19T06:07:57;99673.47;;;10.58;77.20
58471;BME280;44258;51.288;12.068;2023-11-19T06:10:25;99673.97;;;10.50;77.48
58471;BME280;44258;51.288;12.068;2023-11-19T06:12:56;99678.56;;;10.35;78.90
58471;BME280;44258;51.288;12.068;2023-11-19T06:15:25;99685.81;;;10.20;79.91
58471;BME280;44258;51.288;12.068;2023-11-19T06:17:51;99692.75;;;10.37;79.30
58471;BME280;44258;51.288;12.068;2023-11-19T06:20:18;99688.28;;;10.50;78.60
58471;BME280;44258;51.288;12.068;2023-11-19T06:22:45;99666.38;;;10.57;78.17
58471;BME280;44258;51.288;12.068;2023-11-19T06:25:12;99689.81;;;10.54;78.65
58471;BME280;44258;51.288;12.068;2023-11-19T06:27:41;99688.09;;;10.53;78.94
58471;BME280;44258;51.288;12.068;2023-11-19T06:30:10;99687.78;;;10.58;78.42
58471;BME280;44258;51.288;12.068;2023-11-19T06:32:38;99691.38;;;10.71;78.19
58471;BME280;44258;51.288;12.068;2023-11-19T06:35:05;99706.34;;;10.75;77.76
58471;BME280;44258;51.288;12.068;2023-11-19T06:37:34;99688.78;;;10.70;78.17
58471;BME280;44258;51.288;12.068;2023-11-19T06:40:01;99691.81;;;10.78;77.83
58471;BME280;44258;51.288;12.068;2023-11-19T06:42:30;99700.94;;;10.90;77.23
58471;BME280;44258;51.288;12.068;2023-11-19T06:44:58;99701.38;;;10.97;76.61
58471;BME280;44258;51.288;12.068;2023-11-19T06:47:25;99691.28;;;11.00;76.43
58471;BME280;44258;51.288;12.068;2023-11-19T06:49:53;99691.94;;;11.04;75.90
58471;BME280;44258;51.288;12.068;2023-11-19T06:52:20;99691.13;;;10.89;76.90
58471;BME280;44258;51.288;12.068;2023-11-19T06:54:47;99690.59;;;10.84;77.12
58471;BME280;44258;51.288;12.068;2023-11-19T06:57:13;99711.13;;;10.58;78.84
58471;BME280;44258;51.288;12.068;2023-11-19T06:59:40;99708.44;;;10.85;77.81
58471;BME280;44258;51.288;12.068;2023-11-19T07:02:08;99691.25;;;10.87;78.22
58471;BME280;44258;51.288;12.068;2023-11-19T07:04:35;99695.59;;;10.75;79.41
58471;BME280;44258;51.288;12.068;2023-11-19T07:07:02;99698.78;;;10.95;78.80
58471;BME280;44258;51.288;12.068;2023-11-19T07:09:31;99699.69;;;11.08;77.93
58471;BME280;44258;51.288;12.068;2023-11-19T07:11:58;99701.63;;;11.19;77.50
58471;BME280;44258;51.288;12.068;2023-11-19T07:14:25;99704.75;;;11.26;77.58
58471;BME280;44258;51.288;12.068;2023-11-19T07:16:52;99708.97;;;11.30;77.13
58471;BME280;44258;51.288;12.068;2023-11-19T07:19:20;99708.28;;;11.13;77.91
58471;BME280;44258;51.288;12.068;2023-11-19T07:21:47;99709.38;;;11.24;77.91
58471;BME280;44258;51.288;12.068;2023-11-19T07:24:14;99703.13;;;11.23;78.19
58471;BME280;44258;51.288;12.068;2023-11-19T07:26:43;99707.03;;;11.32;78.16
58471;BME280;44258;51.288;12.068;2023-11-19T07:29:10;99702.41;;;11.34;78.87
58471;BME280;44258;51.288;12.068;2023-11-19T07:31:36;99704.34;;;11.32;79.22
58471;BME280;44258;51.288;12.068;2023-11-19T07:34:03;99717.88;;;11.18;80.39
58471;BME280;44258;51.288;12.068;2023-11-19T07:36:32;99712.94;;;11.24;80.86
58471;BME280;44258;51.288;12.068;2023-11-19T07:38:58;99716.97;;;11.44;80.19
58471;BME280;44258;51.288;12.068;2023-11-19T07:41:25;99699.94;;;11.57;79.72
58471;BME280;44258;51.288;12.068;2023-11-19T07:43:54;99714.34;;;11.55;80.12
58471;BME280;44258;51.288;12.068;2023-11-19T07:46:21;99722.53;;;11.54;80.15
58471;BME280;44258;51.288;12.068;2023-11-19T07:48:48;99709.06;;;11.54;80.19
58471;BME280;44258;51.288;12.068;2023-11-19T07:51:15;99717.69;;;11.72;79.75
58471;BME280;44258;51.288;12.068;2023-11-19T07:53:46;99712.41;;;11.83;78.88
58471;BME280;44258;51.288;12.068;2023-11-19T07:56:12;99716.16;;;11.81;79.27
58471;BME280;44258;51.288;12.068;2023-11-19T07:58:39;99712.19;;;11.86;78.76
58471;BME280;44258;51.288;12.068;2023-11-19T08:01:06;99705.50;;;11.66;80.07
58471;BME280;44258;51.288;12.068;2023-11-19T08:03:33;99701.84;;;11.80;79.47
58471;BME280;44258;51.288;12.068;2023-11-19T08:06:00;99705.81;;;11.74;79.37
58471;BME280;44258;51.288;12.068;2023-11-19T08:08:27;99714.97;;;11.85;78.65
58471;BME280;44258;51.288;12.068;2023-11-19T08:10:56;99725.66;;;11.86;78.14
58471;BME280;44258;51.288;12.068;2023-11-19T08:13:25;99732.84;;;11.99;77.66
58471;BME280;44258;51.288;12.068;2023-11-19T08:15:52;99741.06;;;11.97;77.83
58471;BME280;44258;51.288;12.068;2023-11-19T08:18:19;99727.69;;;11.95;77.95
58471;BME280;44258;51.288;12.068;2023-11-19T08:20:45;99726.28;;;12.03;78.03
58471;BME280;44258;51.288;12.068;2023-11-19T08:23:18;99726.75;;;12.09;77.19
58471;BME280;44258;51.288;12.068;2023-11-19T08:25:44;99718.31;;;12.14;77.53
58471;BME280;44258;51.288;12.068;2023-11-19T08:28:13;99728.97;;;12.03;78.73
58471;BME280;44258;51.288;12.068;2023-11-19T08:30:39;99727.81;;;12.07;79.06
58471;BME280;44258;51.288;12.068;2023-11-19T08:33:06;99728.25;;;12.38;78.20
58471;BME280;44258;51.288;12.068;2023-11-19T08:35:33;99721.19;;;12.61;77.63
58471;BME280;44258;51.288;12.068;2023-11-19T08:38:00;99727.25;;;12.75;77.55
58471;BME280;44258;51.288;12.068;2023-11-19T08:40:27;99731.72;;;12.88;77.11
58471;BME280;44258;51.288;12.068;2023-11-19T08:42:55;99727.66;;;12.82;77.16
58471;BME280;44258;51.288;12.068;2023-11-19T08:45:23;99731.09;;;12.84;77.44
58471;BME280;44258;51.288;12.068;2023-11-19T08:47:50;99723.09;;;13.07;76.51
58471;BME280;44258;51.288;12.068;2023-11-19T08:50:16;99722.91;;;13.21;76.65
58471;BME280;44258;51.288;12.068;2023-11-19T08:52:43;99721.09;;;13.22;76.77
58471;BME280;44258;51.288;12.068;2023-11-19T08:55:10;99713.94;;;13.21;77.01
58471;BME280;44258;51.288;12.068;2023-11-19T08:57:39;99737.97;;;13.37;76.68
58471;BME280;44258;51.288;12.068;2023-11-19T09:00:06;99742.28;;;13.50;76.28
58471;BME280;44258;51.288;12.068;2023-11-19T09:02:35;99737.78;;;13.62;75.46
58471;BME280;44258;51.288;12.068;2023-11-19T09:05:02;99729.91;;;13.59;75.47
58471;BME280;44258;51.288;12.068;2023-11-19T09:07:29;99742.22;;;13.74;75.62
58471;BME280;44258;51.288;12.068;2023-11-19T09:09:55;99743.22;;;13.85;75.42
58471;BME280;44258;51.288;12.068;2023-11-19T09:12:22;99745.75;;;13.86;75.38
58471;BME280;44258;51.288;12.068;2023-11-19T09:14:49;99753.09;;;13.62;75.91
58471;BME280;44258;51.288;12.068;2023-11-19T09:17:16;99742.31;;;13.84;75.20
58471;BME280;44258;51.288;12.068;2023-11-19T09:19:45;99747.63;;;13.97;74.92
58471;BME280;44258;51.288;12.068;2023-11-19T09:22:12;99744.91;;;14.20;74.41
58471;BME280;44258;51.288;12.068;2023-11-19T09:24:39;99751.81;;;14.24;74.03
58471;BME280;44258;51.288;12.068;2023-11-19T09:27:06;99751.06;;;14.22;73.81
58471;BME280;44258;51.288;12.068;2023-11-19T09:29:32;99743.81;;;14.22;74.00
58471;BME280;44258;51.288;12.068;2023-11-19T09:31:59;99743.56;;;14.25;73.97
58471;BME280;44258;51.288;12.068;2023-11-19T09:34:26;99745.81;;;14.31;73.62
58471;BME280;44258;51.288;12.068;2023-11-19T09:36:54;99751.31;;;14.30;73.49
58471;BME280;44258;51.288;12.068;2023-11-19T09:39:21;99747.50;;;14.32;73.23
58471;BME280;44258;51.288;12.068;2023-11-19T09:41:49;99747.38;;;14.23;73.48
58471;BME280;44258;51.288;12.068;2023-11-19T09:44:16;99743.44;;;14.27;73.23
58471;BME280;44258;51.288;12.068;2023-11-19T09:46:44;99738.19;;;14.03;74.63
58471;BME280;44258;51.288;12.068;2023-11-19T09:49:13;99733.59;;;14.14;73.67
58471;BME280;44258;51.288;12.068;2023-11-19T09:51:40;99730.56;;;14.19;73.53
58471;BME280;44258;51.288;12.068;2023-11-19T09:54:08;99734.38;;;14.05;73.82
58471;BME280;44258;51.288;12.068;2023-11-19T09:56:38;99742.13;;;13.99;74.39
58471;BME280;44258;51.288;12.068;2023-11-19T09:59:05;99736.44;;;13.90;75.05
58471;BME280;44258;51.288;12.068;2023-11-19T10:01:33;99742.59;;;14.04;74.26
58471;BME280;44258;51.288;12.068;2023-11-19T10:04:01;99736.69;;;14.10;74.35
58471;BME280;44258;51.288;12.068;2023-11-19T10:06:32;99740.47;;;14.19;74.07
58471;BME280;44258;51.288;12.068;2023-11-19T10:08:59;99739.41;;;14.32;73.70
58471;BME280;44258;51.288;12.068;2023-11-19T10:11:28;99730.16;;;14.12;74.07
58471;BME280;44258;51.288;12.068;2023-11-19T10:13:56;99735.19;;;14.28;73.68
58471;BME280;44258;51.288;12.068;2023-11-19T10:16:29;99732.38;;;14.30;73.70
58471;BME280;44258;51.288;12.068;2023-11-19T10:18:58;99731.63;;;14.39;73.79
58471;BME280;44258;51.288;12.068;2023-11-19T10:21:25;99711.69;;;14.51;73.35
58471;BME280;44258;51.288;12.068;2023-11-19T10:23:54;99713.41;;;14.64;73.22
58471;BME280;44258;51.288;12.068;2023-11-19T10:26:22;99715.75;;;14.57;73.51
58471;BME280;44258;51.288;12.068;2023-11-19T10:28:51;99709.75;;;14.42;73.60
58471;BME280;44258;51.288;12.068;2023-11-19T10:31:18;99714.56;;;14.39;73.45
58471;BME280;44258;51.288;12.068;2023-11-19T10:33:48;99720.97;;;14.38;73.49
58471;BME280;44258;51.288;12.068;2023-11-19T10:36:15;99717.53;;;14.36;73.32
58471;BME280;44258;51.288;12.068;2023-11-19T10:38:51;99725.16;;;14.19;73.90
58471;BME280;44258;51.288;12.068;2023-11-19T10:41:26;99726.34;;;14.26;73.56
58471;BME280;44258;51.288;12.068;2023-11-19T10:43:55;99702.63;;;14.19;73.98
58471;BME280;44258;51.288;12.068;2023-11-19T10:46:21;99699.56;;;14.34;73.20
58471;BME280;44258;51.288;12.068;2023-11-19T10:48:49;99695.75;;;14.26;72.93
58471;BME280;44258;51.288;12.068;2023-11-19T10:51:19;99693.44;;;14.10;73.23
58471;BME280;44258;51.288;12.068;2023-11-19T10:53:47;99700.31;;;13.80;73.54
58471;BME280;44258;51.288;12.068;2023-11-19T10:56:17;99695.66;;;13.93;73.13
58471;BME280;44258;51.288;12.068;2023-11-19T10:58:49;99683.13;;;14.04;72.26
58471;BME280;44258;51.288;12.068;2023-11-19T11:01:20;99700.22;;;13.93;72.17
58471;BME280;44258;51.288;12.068;2023-11-19T11:03:47;99708.69;;;14.00;71.99
58471;BME280;44258;51.288;12.068;2023-11-19T11:06:17;99707.72;;;14.01;72.14
58471;BME280;44258;51.288;12.068;2023-11-19T11:08:46;99710.88;;;14.06;72.13
58471;BME280;44258;51.288;12.068;2023-11-19T11:11:15;99705.22;;;14.20;71.43
58471;BME280;44258;51.288;12.068;2023-11-19T11:13:43;99709.50;;;14.23;71.39
58471;BME280;44258;51.288;12.068;2023-11-19T11:16:10;99711.00;;;14.15;71.26
58471;BME280;44258;51.288;12.068;2023-11-19T11:18:39;99707.81;;;14.10;71.31
58471;BME280;44258;51.288;12.068;2023-11-19T11:21:10;99708.06;;;14.07;70.75
58471;BME280;44258;51.288;12.068;2023-11-19T11:23:52;99707.94;;;14.09;70.87
58471;BME280;44258;51.288;12.068;2023-11-19T11:26:45;99709.50;;;14.23;70.26
58471;BME280;44258;51.288;12.068;2023-11-19T11:29:24;99706.22;;;14.42;70.05
58471;BME280;44258;51.288;12.068;2023-11-19T11:31:57;99704.47;;;14.52;69.09
58471;BME280;44258;51.288;12.068;2023-11-19T11:34:48;99706.66;;;14.47;68.81
58471;BME280;44258;51.288;12.068;2023-11-19T11:37:26;99698.81;;;14.44;68.83
58471;BME280;44258;51.288;12.068;2023-11-19T11:39:57;99702.63;;;14.30;69.27
58471;BME280;44258;51.288;12.068;2023-11-19T11:42:34;99706.16;;;14.64;67.92
58471;BME280;44258;51.288;12.068;2023-11-19T11:45:01;99708.13;;;14.51;67.80
58471;BME280;44258;51.288;12.068;2023-11-19T11:50:48;99697.06;;;14.54;66.84
58471;BME280;44258;51.288;12.068;2023-11-19T11:53:20;99695.44;;;14.63;66.85
58471;BME280;44258;51.288;12.068;2023-11-19T11:55:57;99688.56;;;14.59;66.70
58471;BME280;44258;51.288;12.068;2023-11-19T11:58:27;99684.22;;;14.67;65.88
58471;BME280;44258;51.288;12.068;2023-11-19T12:00:57;99695.19;;;14.66;66.00
58471;BME280;44258;51.288;12.068;2023-11-19T12:03:27;99682.81;;;14.52;66.42
58471;BME280;44258;51.288;12.068;2023-11-19T12:05:56;99689.50;;;14.69;66.25
58471;BME280;44258;51.288;12.068;2023-11-19T12:08:25;99689.13;;;14.73;66.02
58471;BME280;44258;51.288;12.068;2023-11-19T12:10:55;99687.75;;;14.79;66.26
58471;BME280;44258;51.288;12.068;2023-11-19T12:13:24;99677.94;;;14.78;65.80
58471;BME280;44258;51.288;12.068;2023-11-19T12:16:09;99697.41;;;14.61;65.96
58471;BME280;44258;51.288;12.068;2023-11-19T12:18:39;99688.09;;;14.86;65.13
58471;BME280;44258;51.288;12.068;2023-11-19T12:21:07;99696.72;;;14.80;64.30
58471;BME280;44258;51.288;12.068;2023-11-19T12:23:44;99694.03;;;14.80;64.21
58471;BME280;44258;51.288;12.068;2023-11-19T12:26:21;99691.06;;;14.50;63.71
58471;BME280;44258;51.288;12.068;2023-11-19T12:28:59;99691.63;;;14.65;62.93
58471;BME280;44258;51.288;12.068;2023-11-19T12:31:26;99685.78;;;14.81;62.64
58471;BME280;44258;51.288;12.068;2023-11-19T12:33:55;99680.91;;;14.96;62.57
58471;BME280;44258;51.288;12.068;2023-11-19T12:36:23;99686.72;;;15.12;62.34
58471;BME280;44258;51.288;12.068;2023-11-19T12:38:50;99691.56;;;15.09;61.65
58471;BME280;44258;51.288;12.068;2023-11-19T12:41:16;99683.44;;;15.09;60.98
58471;BME280;44258;51.288;12.068;2023-11-19T12:43:46;99682.41;;;14.68;61.23
58471;BME280;44258;51.288;12.068;2023-11-19T12:46:20;99676.28;;;14.54;61.54
58471;BME280;44258;51.288;12.068;2023-11-19T12:48:47;99676.28;;;14.87;61.60
58471;BME280;44258;51.288;12.068;2023-11-19T12:51:14;99678.69;;;15.01;60.46
58471;BME280;44258;51.288;12.068;2023-11-19T12:53:49;99679.06;;;14.97;59.79
58471;BME280;44258;51.288;12.068;2023-11-19T12:56:18;99683.66;;;15.17;60.65
58471;BME280;44258;51.288;12.068;2023-11-19T12:58:45;99678.06;;;15.19;59.57
58471;BME280;44258;51.288;12.068;2023-11-19T13:01:16;99680.13;;;15.26;59.84